Time;durP1;ratioP1;P1;durP2;ratioP2;P2;SDS_P1;SDS_P2;PMS_P1;PMS_P2;Temp;Humidity;BMP_temperature;BMP_pressure;BME280_temperature;BME280_humidity;BME280_pressure;Samples;Min_cycle;Max_cycle;Signal;HPM_P1;HPM_P2
2023/03/21 00:02:13;;;;;;;17.60;9.27;;;13.40;99.90;;;;;;5012725;28;20354;-74
2023/03/21 00:04:39;;;;;;;14.87;9.43;;;13.40;99.90;;;;;;5030076;28;20041;-73
2023/03/21 00:07:05;;;;;;;18.07;10.13;;;13.40;99.90;;;;;;5030454;28;20268;-73
2023/03/21 00:09:33;;;;;;;15.10;10.23;;;13.30;99.90;;;;;;5030085;28;20064;-71
2023/03/21 00:12:00;;;;;;;13.88;9.80;;;13.20;99.90;;;;;;5030318;28;20037;-75
2023/03/21 00:14:29;;;;;;;14.27;9.52;;;13.30;99.90;;;;;;5012203;28;20397;-74
2023/03/21 00:16:55;;;;;;;13.20;8.95;;;13.20;99.90;;;;;;5030171;28;20445;-74
2023/03/21 00:19:23;;;;;;;14.73;9.23;;;13.30;99.90;;;;;;5030079;28;20021;-74
2023/03/21 00:21:51;;;;;;;11.30;7.53;;;13.20;99.90;;;;;;5029971;28;20060;-73
2023/03/21 00:24:17;;;;;;;;;;;13.30;99.90;;;;;;5030898;28;20033;-73
2023/03/21 00:26:43;;;;;;;13.82;8.32;;;13.20;99.90;;;;;;5030010;28;20047;-74
2023/03/21 00:29:09;;;;;;;12.70;8.60;;;13.20;99.90;;;;;;5030052;28;20335;-74
2023/03/21 00:31:36;;;;;;;;;;;13.20;99.90;;;;;;5030399;28;20148;-73
2023/03/21 00:34:02;;;;;;;15.07;7.80;;;13.20;99.90;;;;;;5030027;28;19905;-74
2023/03/21 00:36:29;;;;;;;12.53;8.13;;;13.20;99.90;;;;;;5031751;28;20052;-74
2023/03/21 00:38:55;;;;;;;10.32;7.75;;;13.20;99.90;;;;;;5033999;28;20036;-73
2023/03/21 00:41:22;;;;;;;14.13;8.70;;;13.00;99.90;;;;;;5033751;28;20033;-73
2023/03/21 00:43:50;;;;;;;14.60;8.35;;;13.10;99.90;;;;;;5015872;28;20034;-73
2023/03/21 00:46:18;;;;;;;14.40;8.63;;;13.10;99.90;;;;;;5033339;28;20121;-77
2023/03/21 00:48:44;;;;;;;11.60;8.27;;;13.10;99.90;;;;;;5033275;28;20033;-73
2023/03/21 00:51:14;;;;;;;11.30;7.80;;;13.00;99.90;;;;;;5033474;28;20121;-73
2023/03/21 00:53:42;;;;;;;11.07;7.72;;;13.00;99.90;;;;;;5033137;28;20037;-69
2023/03/21 00:56:09;;;;;;;13.98;8.38;;;13.00;99.90;;;;;;5033364;28;20030;-69
2023/03/21 00:58:35;;;;;;;12.70;8.32;;;12.90;99.90;;;;;;5033735;28;20425;-73
2023/03/21 01:01:05;;;;;;;11.10;8.70;;;12.80;99.90;;;;;;5033805;28;20084;-73
2023/03/21 01:03:41;;;;;;;16.80;9.35;;;12.70;99.90;;;;;;5033113;28;20343;-73
2023/03/21 01:06:12;;;;;;;14.98;9.57;;;12.80;99.90;;;;;;5033389;28;20064;-73
2023/03/21 01:08:40;;;;;;;16.63;9.60;;;12.80;99.90;;;;;;5033030;28;20037;-73
2023/03/21 01:11:17;;;;;;;16.85;9.20;;;12.80;99.90;;;;;;5033378;28;20061;-73
2023/03/21 01:13:44;;;;;;;13.02;9.10;;;12.80;99.90;;;;;;5015181;28;20042;-72
2023/03/21 01:16:11;;;;;;;13.73;9.93;;;12.80;99.90;;;;;;5033052;28;20096;-73
2023/03/21 01:18:39;;;;;;;16.10;10.15;;;12.80;99.90;;;;;;5032819;28;20035;-73
2023/03/21 01:21:12;;;;;;;15.43;9.23;;;12.90;99.90;;;;;;5014805;28;20026;-74
2023/03/21 01:23:41;;;;;;;13.68;8.88;;;12.90;99.90;;;;;;5033116;28;20026;-74
2023/03/21 01:26:09;;;;;;;13.00;9.15;;;12.90;99.90;;;;;;4998735;28;20056;-73
2023/03/21 01:28:37;;;;;;;13.32;9.05;;;12.80;99.90;;;;;;5014619;28;20032;-73
2023/03/21 01:31:05;;;;;;;17.08;9.85;;;12.80;99.90;;;;;;5032613;28;20409;-73
2023/03/21 01:33:33;;;;;;;15.27;9.40;;;12.80;99.90;;;;;;5032342;28;20450;-73
2023/03/21 01:36:00;;;;;;;12.95;9.52;;;12.80;99.90;;;;;;5033126;28;20466;-74
2023/03/21 01:38:26;;;;;;;15.52;9.48;;;12.80;99.90;;;;;;5032258;28;20109;-73
2023/03/21 01:40:53;;;;;;;13.18;9.98;;;12.80;99.90;;;;;;5032594;28;20060;-73
2023/03/21 01:43:26;;;;;;;14.20;9.60;;;12.80;99.90;;;;;;5032764;28;20036;-73
2023/03/21 01:46:22;;;;;;;15.02;9.65;;;12.80;99.90;;;;;;5032582;28;20411;-73
2023/03/21 01:48:56;;;;;;;17.65;9.60;;;12.80;99.90;;;;;;5031726;28;20025;-73
2023/03/21 01:51:24;;;;;;;15.18;10.32;;;12.70;99.90;;;;;;5032450;28;20092;-73
2023/03/21 01:53:50;;;;;;;18.17;10.10;;;12.70;99.90;;;;;;5032251;28;20461;-73
2023/03/21 01:56:19;;;;;;;18.45;11.18;;;12.70;99.90;;;;;;5032267;28;20037;-73
2023/03/21 01:58:46;;;;;;;18.48;11.00;;;12.70;99.90;;;;;;5032323;28;20017;-74
2023/03/21 02:01:15;;;;;;;;;;;12.70;99.90;;;;;;5032672;28;20035;-73
2023/03/21 02:03:48;;;;;;;16.42;10.35;;;12.70;99.90;;;;;;5032161;28;19916;-74
2023/03/21 02:06:30;;;;;;;15.18;10.38;;;12.70;99.90;;;;;;5032123;28;20048;-73
2023/03/21 02:09:08;;;;;;;15.45;11.15;;;12.70;99.90;;;;;;5031863;28;20033;-73
2023/03/21 02:11:37;;;;;;;18.88;11.18;;;12.70;99.90;;;;;;5013935;28;20052;-73
2023/03/21 02:14:04;;;;;;;17.52;11.23;;;12.70;99.90;;;;;;5032176;28;20026;-73
2023/03/21 02:17:04;;;;;;;15.77;11.43;;;12.60;99.90;;;;;;5013809;28;20140;-74
2023/03/21 02:19:33;;;;;;;21.08;11.30;;;12.60;99.90;;;;;;5031781;28;20109;-73
2023/03/21 02:22:10;;;;;;;18.20;10.93;;;12.50;99.90;;;;;;5031755;28;20030;-73
2023/03/21 02:25:10;;;;;;;15.10;10.88;;;12.50;99.90;;;;;;5031475;28;20065;-73
2023/03/21 02:28:06;;;;;;;16.33;10.80;;;12.50;99.90;;;;;;5031893;28;20045;-72
2023/03/21 02:30:43;;;;;;;16.55;10.60;;;12.60;99.90;;;;;;5013130;28;20041;-73
2023/03/21 02:33:27;;;;;;;16.08;11.20;;;12.50;99.90;;;;;;5013470;28;20516;-74
2023/03/21 02:36:13;;;;;;;14.82;11.02;;;12.50;99.90;;;;;;5031786;28;20033;-72
2023/03/21 02:39:12;;;;;;;18.08;12.52;;;12.50;99.90;;;;;;5013514;28;20041;-73
2023/03/21 02:41:57;;;;;;;18.13;11.45;;;12.60;99.90;;;;;;5031545;28;20362;-73
2023/03/21 02:44:46;;;;;;;17.02;11.57;;;12.50;99.90;;;;;;5031502;28;20052;-73
2023/03/21 02:47:16;;;;;;;14.50;10.35;;;12.50;99.90;;;;;;5031296;28;20025;-73
2023/03/21 02:50:17;;;;;;;15.90;11.00;;;12.60;99.90;;;;;;5031487;28;20026;-73
2023/03/21 02:52:46;;;;;;;15.10;11.75;;;12.60;99.90;;;;;;5031569;28;20373;-73
2023/03/21 02:55:24;;;;;;;16.90;11.30;;;12.40;99.90;;;;;;5031369;28;20370;-73
2023/03/21 02:57:53;;;;;;;18.20;11.85;;;12.40;99.90;;;;;;5031355;28;20037;-74
2023/03/21 03:00:23;;;;;;;14.05;11.80;;;12.40;99.90;;;;;;5031229;28;20531;-73
2023/03/21 03:02:53;;;;;;;17.35;11.27;;;12.30;99.90;;;;;;5013061;28;20022;-72
2023/03/21 03:05:23;;;;;;;18.60;11.32;;;12.30;99.90;;;;;;5012776;28;20091;-72
2023/03/21 03:08:34;;;;;;;16.50;10.93;;;12.30;99.90;;;;;;5030914;28;20022;-74
2023/03/21 03:11:23;;;;;;;18.58;11.55;;;12.30;99.90;;;;;;5030722;28;20048;-73
2023/03/21 03:14:28;;;;;;;17.00;12.52;;;12.30;99.90;;;;;;5031075;28;20026;-74
2023/03/21 03:17:06;;;;;;;18.67;11.15;;;12.30;99.90;;;;;;5012626;28;20029;-73
2023/03/21 03:19:43;;;;;;;15.65;10.95;;;12.20;99.90;;;;;;5030787;28;20027;-73
2023/03/21 03:22:41;;;;;;;16.98;11.10;;;12.20;99.90;;;;;;5012695;28;20075;-74
2023/03/21 03:25:13;;;;;;;16.38;10.82;;;12.20;99.90;;;;;;5030840;28;20032;-75
2023/03/21 03:27:42;;;;;;;19.83;11.38;;;12.10;99.90;;;;;;5030703;28;20032;-72
2023/03/21 03:30:10;;;;;;;18.70;10.90;;;12.10;99.90;;;;;;5030274;28;20117;-73
2023/03/21 03:32:56;;;;;;;15.48;11.05;;;12.00;99.90;;;;;;5030049;28;20030;-71
2023/03/21 03:35:23;;;;;;;;;;;12.00;99.90;;;;;;5012763;28;20022;-73
2023/03/21 03:37:56;;;;;;;13.77;9.85;;;12.10;99.90;;;;;;5030197;28;19949;-73
2023/03/21 03:40:39;;;;;;;15.52;10.05;;;12.20;99.90;;;;;;5030357;28;20025;-73
2023/03/21 03:43:11;;;;;;;16.13;10.65;;;12.10;99.90;;;;;;5030220;28;20025;-71
2023/03/21 03:45:49;;;;;;;13.13;10.23;;;12.10;99.90;;;;;;5030265;28;20048;-72
2023/03/21 03:48:45;;;;;;;18.90;10.55;;;12.00;99.90;;;;;;5011537;28;20068;-73
2023/03/21 03:51:27;;;;;;;17.02;10.30;;;12.10;99.90;;;;;;5029707;28;20037;-72
2023/03/21 03:54:00;;;;;;;17.77;10.45;;;12.00;99.90;;;;;;5029878;28;20075;-75
2023/03/21 03:56:26;;;;;;;17.05;10.38;;;12.00;99.90;;;;;;5031099;28;20030;-74
2023/03/21 03:58:52;;;;;;;18.63;10.43;;;12.00;99.90;;;;;;5030441;28;20089;-73
2023/03/21 04:01:18;;;;;;;16.40;10.97;;;11.90;99.90;;;;;;5029312;28;20087;-72
2023/03/21 04:03:48;;;;;;;15.77;11.00;;;11.90;99.90;;;;;;5028946;28;20040;-73
2023/03/21 04:06:15;;;;;;;18.30;10.93;;;11.90;99.90;;;;;;5029120;28;20136;-72
2023/03/21 04:08:42;;;;;;;18.52;10.93;;;11.90;99.90;;;;;;5029686;28;20033;-74
2023/03/21 04:11:10;;;;;;;20.48;11.07;;;11.90;99.90;;;;;;5013563;28;20099;-73
2023/03/21 04:13:40;;;;;;;17.77;11.00;;;11.90;99.90;;;;;;5033602;28;20022;-73
2023/03/21 04:16:07;;;;;;;20.63;11.32;;;11.90;99.90;;;;;;5034378;28;20080;-73
2023/03/21 04:18:33;;;;;;;17.63;11.27;;;11.90;99.90;;;;;;5016424;28;20100;-73
2023/03/21 04:21:02;;;;;;;16.15;11.10;;;11.90;99.90;;;;;;5034349;28;20021;-73
2023/03/21 04:23:28;;;;;;;14.10;10.02;;;11.90;99.90;;;;;;5016574;28;20025;-73
2023/03/21 04:25:54;;;;;;;22.27;11.32;;;11.80;99.90;;;;;;5034600;28;20040;-73
2023/03/21 04:28:20;;;;;;;17.20;11.30;;;11.80;99.90;;;;;;5035010;28;20060;-73
2023/03/21 04:30:49;;;;;;;18.50;11.43;;;11.70;99.90;;;;;;5016892;28;20343;-73
2023/03/21 04:33:15;;;;;;;17.45;11.40;;;11.70;99.90;;;;;;5034879;28;20147;-73
2023/03/21 04:35:44;;;;;;;17.60;11.50;;;11.60;99.90;;;;;;5017192;28;20036;-73
2023/03/21 04:38:10;;;;;;;14.70;11.05;;;11.70;99.90;;;;;;5017064;28;20049;-73
2023/03/21 04:40:41;;;;;;;16.60;11.30;;;11.70;99.90;;;;;;5034858;28;20026;-73
2023/03/21 04:43:07;;;;;;;18.08;11.27;;;11.70;99.90;;;;;;5035183;28;20022;-73
2023/03/21 04:45:33;;;;;;;15.77;11.20;;;11.70;99.90;;;;;;5034872;28;20105;-73
2023/03/21 04:47:59;;;;;;;16.67;11.55;;;11.70;99.90;;;;;;5016847;28;20061;-72
2023/03/21 04:50:25;;;;;;;15.30;10.53;;;11.60;99.90;;;;;;5034653;28;20025;-73
2023/03/21 04:52:53;;;;;;;20.15;11.95;;;11.70;99.90;;;;;;5016746;28;20283;-73
2023/03/21 04:55:20;;;;;;;15.65;10.85;;;11.70;99.90;;;;;;5035122;28;20018;-73
2023/03/21 04:57:47;;;;;;;17.25;11.43;;;11.60;99.90;;;;;;5035074;28;20425;-73
2023/03/21 05:00:15;;;;;;;18.95;11.10;;;11.60;99.90;;;;;;5034534;28;20064;-73
2023/03/21 05:02:41;;;;;;;17.00;11.35;;;11.60;99.90;;;;;;5016548;28;20454;-73
2023/03/21 05:05:10;;;;;;;15.67;11.27;;;11.60;99.90;;;;;;5034379;28;20107;-73
2023/03/21 05:07:40;;;;;;;16.02;11.52;;;11.50;99.90;;;;;;5034387;28;20478;-73
2023/03/21 05:10:10;;;;;;;16.42;11.85;;;11.50;99.90;;;;;;5033966;28;20108;-74
2023/03/21 05:12:37;;;;;;;19.60;12.25;;;11.40;99.90;;;;;;5034421;28;20021;-73
2023/03/21 05:15:04;;;;;;;;;;;11.30;99.90;;;;;;5035009;28;20034;-73
2023/03/21 05:17:30;;;;;;;24.58;12.55;;;11.30;99.90;;;;;;5035119;28;19996;-73
2023/03/21 05:19:56;;;;;;;20.23;12.20;;;11.30;99.90;;;;;;5035411;28;20025;-73
2023/03/21 05:22:25;;;;;;;17.87;12.03;;;11.20;99.90;;;;;;5034041;28;20028;-73
2023/03/21 05:24:54;;;;;;;17.75;11.05;;;11.20;99.90;;;;;;5016933;28;20033;-73
2023/03/21 05:27:35;;;;;;;17.13;13.13;;;11.20;99.90;;;;;;5034812;28;20022;-73
2023/03/21 05:30:10;;;;;;;22.10;12.82;;;11.30;99.90;;;;;;5035053;28;20022;-75
2023/03/21 05:32:38;;;;;;;21.85;12.70;;;11.30;99.90;;;;;;5034700;28;20112;-74
2023/03/21 05:35:06;;;;;;;21.33;13.05;;;11.40;99.90;;;;;;5035107;28;20033;-73
2023/03/21 05:37:32;;;;;;;17.40;12.73;;;11.40;99.90;;;;;;5035075;28;20029;-73
2023/03/21 05:39:58;;;;;;;23.43;13.83;;;11.30;99.90;;;;;;5035080;28;20021;-73
2023/03/21 05:42:26;;;;;;;20.38;12.15;;;11.20;99.90;;;;;;5034654;28;20132;-73
2023/03/21 05:44:52;;;;;;;18.02;13.10;;;11.10;99.90;;;;;;5034447;28;20082;-74
2023/03/21 05:47:18;;;;;;;18.60;12.80;;;11.00;99.90;;;;;;5034888;28;20105;-75
2023/03/21 05:49:48;;;;;;;19.50;12.68;;;11.10;99.90;;;;;;5017371;28;20116;-75
2023/03/21 05:52:15;;;;;;;19.35;12.73;;;11.20;99.90;;;;;;5034217;28;20049;-72
2023/03/21 05:54:41;;;;;;;18.95;12.82;;;11.30;99.90;;;;;;5016397;28;20026;-73
2023/03/21 05:57:08;;;;;;;17.65;12.00;;;11.50;99.90;;;;;;5034136;28;20120;-73
2023/03/21 05:59:34;;;;;;;15.95;11.13;;;12.50;99.90;;;;;;5016730;28;20201;-73
2023/03/21 06:02:00;;;;;;;15.55;10.32;;;13.10;99.90;;;;;;5033801;28;20232;-73
2023/03/21 06:04:26;;;;;;;16.77;10.00;;;13.70;99.90;;;;;;5033573;28;20132;-73
2023/03/21 06:06:53;;;;;;;14.53;9.20;;;13.80;99.90;;;;;;5034168;28;20030;-74
2023/03/21 06:09:21;;;;;;;10.65;7.68;;;14.20;99.90;;;;;;5033842;28;20097;-75
2023/03/21 06:11:50;;;;;;;13.00;9.05;;;15.30;99.90;;;;;;5033671;28;20034;-77
2023/03/21 06:14:17;;;;;;;11.85;8.18;;;15.90;99.90;;;;;;5033839;28;20021;-75
2023/03/21 06:16:43;;;;;;;17.70;8.30;;;15.50;99.90;;;;;;5034231;28;20056;-74
2023/03/21 06:19:10;;;;;;;11.02;7.70;;;15.50;99.90;;;;;;5034175;28;20018;-75
2023/03/21 06:21:36;;;;;;;14.75;7.10;;;16.30;99.90;;;;;;5034642;28;20075;-74
2023/03/21 06:24:02;;;;;;;14.13;7.30;;;18.20;99.90;;;;;;5034450;28;20100;-75
2023/03/21 06:26:28;;;;;;;12.35;7.38;;;17.00;99.90;;;;;;5034457;28;20052;-74
2023/03/21 06:28:55;;;;;;;9.27;6.90;;;18.00;99.90;;;;;;5033839;28;20030;-75
2023/03/21 06:31:25;;;;;;;9.40;6.43;;;17.50;99.90;;;;;;5033235;28;20029;-74
2023/03/21 06:33:51;;;;;;;9.63;5.50;;;17.50;99.90;;;;;;5035403;28;20485;-72
2023/03/21 06:36:18;;;;;;;10.95;5.72;;;19.50;99.90;;;;;;5015361;28;20497;-74
2023/03/21 06:38:45;;;;;;;;;;;18.70;99.90;;;;;;5015578;28;20029;-72
2023/03/21 06:41:12;;;;;;;17.23;5.90;;;19.80;99.90;;;;;;5015380;28;20254;-74
2023/03/21 06:43:39;;;;;;;10.00;5.18;;;20.70;99.90;;;;;;5032628;28;20496;-73
2023/03/21 06:46:05;;;;;;;11.15;5.35;;;21.30;99.90;;;;;;5033027;28;20036;-75
2023/03/21 06:48:32;;;;;;;10.23;5.22;;;22.60;99.90;;;;;;5032989;28;20057;-73
2023/03/21 06:50:59;;;;;;;13.07;5.50;;;22.30;99.90;;;;;;5032238;28;20033;-75
2023/03/21 06:53:27;;;;;;;9.48;5.15;;;21.30;99.90;;;;;;5032605;28;20362;-74
2023/03/21 06:55:54;;;;;;;8.65;5.07;;;22.00;99.90;;;;;;5031909;28;20419;-75
2023/03/21 06:58:20;;;;;;;9.90;5.28;;;22.00;99.90;;;;;;5032244;28;20370;-75
2023/03/21 07:00:53;;;;;;;9.35;4.90;;;20.00;99.90;;;;;;5031202;28;20324;-73
2023/03/21 07:03:19;;;;;;;10.52;4.63;;;20.70;99.90;;;;;;5031986;28;20038;-75
2023/03/21 07:05:45;;;;;;;9.95;5.35;;;21.40;99.90;;;;;;5032369;28;20072;-70
2023/03/21 07:08:12;;;;;;;9.32;5.28;;;22.20;99.90;;;;;;5014468;28;20112;-76
2023/03/21 07:10:45;;;;;;;13.48;5.15;;;22.50;99.90;;;;;;5032162;28;20125;-75
2023/03/21 07:13:14;;;;;;;14.48;6.22;;;20.70;99.90;;;;;;5031859;28;20061;-74
2023/03/21 07:15:40;;;;;;;10.30;4.88;;;20.70;99.90;;;;;;5031911;28;20025;-78
2023/03/21 07:18:09;;;;;;;9.30;4.75;;;21.10;99.90;;;;;;5033117;28;20030;-75
2023/03/21 07:20:39;;;;;;;14.25;4.43;;;21.90;99.90;;;;;;5014836;28;20056;-79
2023/03/21 07:23:24;;;;;;;9.27;4.28;;;23.00;99.90;;;;;;5030292;28;20030;-76
2023/03/21 07:25:51;;;;;;;8.65;4.40;;;22.30;99.90;;;;;;5031875;28;20469;-74
2023/03/21 07:28:19;;;;;;;7.70;4.25;;;21.40;99.90;;;;;;5032090;28;20034;-78
2023/03/21 07:30:53;;;;;;;9.27;4.25;;;20.10;99.90;;;;;;5032009;28;20133;-76
2023/03/21 07:33:19;;;;;;;9.10;4.22;;;19.80;99.90;;;;;;5030817;28;20021;-68
2023/03/21 07:35:45;;;;;;;10.90;4.00;;;19.40;99.90;;;;;;5031968;28;20026;-76
2023/03/21 07:38:13;;;;;;;9.30;4.30;;;19.80;99.90;;;;;;5032289;28;20032;-76
2023/03/21 07:40:40;;;;;;;7.63;4.47;;;19.60;99.90;;;;;;5032210;28;20038;-76
2023/03/21 07:43:06;;;;;;;10.65;4.20;;;19.10;99.90;;;;;;5014228;28;20545;-74
2023/03/21 07:45:33;;;;;;;6.50;4.22;;;18.00;99.90;;;;;;5031683;28;20097;-74
2023/03/21 07:48:00;;;;;;;12.20;4.57;;;17.30;99.90;;;;;;5032487;28;20021;-77
2023/03/21 07:50:28;;;;;;;7.43;4.22;;;18.10;99.90;;;;;;5032530;28;20018;-74
2023/03/21 07:52:54;;;;;;;8.90;5.18;;;17.30;99.90;;;;;;5032141;28;20485;-74
2023/03/21 07:55:21;;;;;;;10.93;4.80;;;17.90;99.90;;;;;;5019350;28;20032;-70
2023/03/21 07:57:50;;;;;;;6.13;4.32;;;18.70;99.90;;;;;;5041688;28;20449;-71
2023/03/21 08:00:24;;;;;;;6.97;4.45;;;18.20;99.90;;;;;;5039088;28;20114;-71
2023/03/21 08:02:53;;;;;;;7.93;4.30;;;18.50;99.90;;;;;;5037816;28;20103;-72
2023/03/21 08:05:22;;;;;;;9.85;4.55;;;18.20;99.90;;;;;;5022915;28;20042;-72
2023/03/21 08:07:50;;;;;;;7.53;4.30;;;17.60;99.90;;;;;;5038996;28;20111;-68
2023/03/21 08:10:17;;;;;;;8.10;4.80;;;18.30;99.90;;;;;;5040487;28;20034;-73
2023/03/21 08:12:44;;;;;;;7.38;4.57;;;18.70;99.90;;;;;;5045399;28;20029;-70
2023/03/21 08:15:11;;;;;;;9.57;4.72;;;18.40;99.90;;;;;;5051695;28;20040;-76
2023/03/21 08:17:39;;;;;;;8.85;5.05;;;18.60;99.90;;;;;;5051741;28;20029;-77
2023/03/21 08:20:07;;;;;;;;;;;17.70;99.90;;;;;;5052245;28;20170;-75
2023/03/21 08:22:36;;;;;;;8.57;4.50;;;17.90;99.90;;;;;;5033626;28;19908;-76
2023/03/21 08:25:04;;;;;;;13.30;5.10;;;18.70;99.90;;;;;;5051750;28;20056;-79
2023/03/21 08:27:31;;;;;;;7.10;4.38;;;19.20;99.90;;;;;;5034028;28;20043;-74
2023/03/21 08:29:58;;;;;;;7.75;4.32;;;18.40;99.90;;;;;;5051226;28;20021;-75
2023/03/21 08:32:28;;;;;;;;;;;18.70;99.90;;;;;;5051254;28;20052;-75
2023/03/21 08:34:57;;;;;;;8.00;4.55;;;17.20;99.90;;;;;;5051657;28;19909;-75
2023/03/21 08:37:23;;;;;;;7.45;4.28;;;18.00;99.90;;;;;;5050934;28;20021;-76
2023/03/21 08:39:50;;;;;;;8.85;4.13;;;18.40;99.90;;;;;;5031579;28;20040;-78
2023/03/21 08:42:16;;;;;;;6.75;3.92;;;18.60;99.90;;;;;;5031871;28;20431;-77
2023/03/21 08:44:43;;;;;;;7.43;3.38;;;19.00;99.90;;;;;;5031710;28;20029;-78
2023/03/21 08:47:16;;;;;;;7.78;3.63;;;18.90;99.90;;;;;;5031743;28;20620;-78
2023/03/21 08:49:44;;;;;;;5.53;3.58;;;18.30;99.90;;;;;;5030851;28;20092;-78
2023/03/21 08:52:11;;;;;;;6.65;3.80;;;18.40;99.90;;;;;;5030926;28;20118;-79
2023/03/21 08:54:40;;;;;;;10.15;4.13;;;18.40;99.90;;;;;;5012971;28;20026;-80
2023/03/21 08:57:07;;;;;;;8.25;4.00;;;18.30;99.90;;;;;;5032305;28;20104;-78
2023/03/21 08:59:35;;;;;;;7.90;4.20;;;17.90;99.90;;;;;;5034401;28;20032;-79
2023/03/21 09:02:04;;;;;;;9.82;4.20;;;17.50;99.90;;;;;;5034043;28;20025;-78
2023/03/21 09:04:31;;;;;;;8.70;3.92;;;17.40;99.90;;;;;;5033384;28;20033;-76
2023/03/21 09:07:00;;;;;;;12.60;4.07;;;18.00;99.90;;;;;;5034137;28;20056;-74
2023/03/21 09:09:27;;;;;;;9.82;3.83;;;18.30;99.90;;;;;;5033993;28;20017;-72
2023/03/21 09:11:54;;;;;;;14.82;5.25;;;18.90;99.90;;;;;;5034410;28;20029;-76
2023/03/21 09:14:20;;;;;;;8.88;4.10;;;18.90;99.90;;;;;;5016505;28;20040;-74
2023/03/21 09:16:46;;;;;;;6.78;3.97;;;19.30;99.90;;;;;;5035546;28;20100;-74
2023/03/21 09:19:12;;;;;;;6.15;3.72;;;19.10;99.90;;;;;;5034595;28;20108;-75
2023/03/21 09:21:40;;;;;;;6.95;3.95;;;18.90;99.90;;;;;;5034126;28;20107;-74
2023/03/21 09:24:07;;;;;;;13.30;3.88;;;18.00;99.90;;;;;;5034541;28;20029;-76
2023/03/21 09:26:33;;;;;;;22.27;5.05;;;18.20;99.90;;;;;;5034602;28;20026;-75
2023/03/21 09:28:59;;;;;;;7.72;3.97;;;18.40;99.90;;;;;;5034406;28;20021;-76
2023/03/21 09:31:29;;;;;;;10.55;4.70;;;18.20;99.90;;;;;;5016809;28;20105;-76
2023/03/21 09:33:56;;;;;;;7.38;3.95;;;18.60;99.90;;;;;;5033942;28;20072;-73
2023/03/21 09:36:23;;;;;;;6.22;3.55;;;18.30;99.90;;;;;;5034182;28;20068;-76
2023/03/21 09:38:53;;;;;;;7.40;3.60;;;18.20;99.90;;;;;;5034363;28;20100;-76
2023/03/21 09:41:48;;;;;;;7.30;3.40;;;18.60;99.90;;;;;;5034372;28;20470;-75
2023/03/21 09:44:24;;;;;;;6.03;3.80;;;18.90;99.90;;;;;;5034683;28;20033;-72
2023/03/21 09:47:02;;;;;;;5.18;3.15;;;18.70;99.90;;;;;;5034523;28;20060;-74
2023/03/21 09:49:34;;;;;;;7.30;3.53;;;18.00;99.90;;;;;;5034449;28;20030;-76
2023/03/21 09:52:06;;;;;;;8.30;4.43;;;18.30;99.90;;;;;;5016428;28;20037;-76
2023/03/21 09:54:41;;;;;;;6.70;3.50;;;18.70;99.90;;;;;;5033920;28;20063;-75
2023/03/21 09:57:30;;;;;;;8.25;4.20;;;18.90;99.90;;;;;;5033521;28;20135;-74
2023/03/21 10:00:06;;;;;;;14.23;4.47;;;19.20;99.90;;;;;;5034083;28;20022;-75
2023/03/21 10:02:48;;;;;;;9.40;3.33;;;19.00;99.90;;;;;;5033429;28;20076;-75
2023/03/21 10:05:26;;;;;;;5.85;3.10;;;19.00;99.90;;;;;;5033466;28;20041;-76
2023/03/21 10:07:59;;;;;;;6.13;2.90;;;18.80;99.90;;;;;;5033147;28;20018;-77
2023/03/21 10:10:36;;;;;;;6.63;3.45;;;18.70;99.90;;;;;;5033297;28;20045;-75
2023/03/21 10:13:11;;;;;;;6.57;3.13;;;18.40;99.90;;;;;;5033537;28;20378;-77
2023/03/21 10:15:37;;;;;;;6.93;3.28;;;18.10;99.90;;;;;;5033354;28;20079;-75
2023/03/21 10:18:06;;;;;;;8.75;3.40;;;18.00;99.90;;;;;;5033122;28;20322;-76
2023/03/21 10:20:36;;;;;;;5.93;3.08;;;18.40;99.90;;;;;;5033182;28;20022;-75
2023/03/21 10:23:11;;;;;;;6.25;3.45;;;18.60;99.90;;;;;;5033143;28;20188;-75
2023/03/21 10:25:42;;;;;;;9.35;3.20;;;18.80;99.90;;;;;;5033521;28;20033;-75
2023/03/21 10:28:17;;;;;;;8.88;3.10;;;18.60;99.90;;;;;;5033453;28;20040;-77
2023/03/21 10:30:52;;;;;;;6.57;3.33;;;18.70;99.90;;;;;;5033504;28;20304;-77
2023/03/21 10:33:27;;;;;;;7.80;2.53;;;18.70;99.90;;;;;;5033235;28;20021;-77
2023/03/21 10:36:01;;;;;;;7.45;2.65;;;18.60;99.90;;;;;;5033454;28;20079;-78
2023/03/21 10:38:28;;;;;;;9.00;3.03;;;18.50;99.90;;;;;;5014634;28;20497;-75
2023/03/21 10:40:55;;;;;;;5.38;2.72;;;18.40;99.90;;;;;;5031599;28;20052;-77
2023/03/21 10:43:34;;;;;;;5.75;2.92;;;18.40;99.90;;;;;;5015209;28;20055;-75
2023/03/21 10:46:20;;;;;;;8.05;2.83;;;18.90;99.90;;;;;;5033515;28;20037;-76
2023/03/21 10:48:51;;;;;;;;;;;19.50;99.90;;;;;;5033238;28;20033;-75
2023/03/21 10:51:27;;;;;;;5.78;2.75;;;19.50;99.90;;;;;;5033230;28;19913;-77
2023/03/21 10:54:16;;;;;;;5.63;2.50;;;19.20;99.90;;;;;;5033107;28;20091;-75
2023/03/21 10:57:11;;;;;;;5.78;2.42;;;19.20;99.90;;;;;;5015354;28;20331;-75
2023/03/21 10:59:40;;;;;;;5.47;2.75;;;19.30;99.90;;;;;;5024647;28;20044;-78
2023/03/21 11:02:32;;;;;;;5.47;3.10;;;19.80;99.90;;;;;;5031906;28;20051;-77
2023/03/21 11:05:05;;;;;;;6.28;2.70;;;19.30;99.90;;;;;;5013486;28;20037;-76
2023/03/21 11:07:31;;;;;;;5.38;2.70;;;18.80;99.90;;;;;;5032163;28;20076;-74
2023/03/21 11:09:59;;;;;;;6.35;3.17;;;19.30;99.90;;;;;;5014129;28;20377;-74
2023/03/21 11:12:37;;;;;;;7.18;3.08;;;19.00;99.90;;;;;;5031325;28;20064;-74
2023/03/21 11:15:41;;;;;;;4.28;2.70;;;19.00;99.90;;;;;;5032281;28;20431;-73
2023/03/21 11:18:18;;;;;;;7.13;2.63;;;19.70;99.90;;;;;;5014830;28;20128;-76
2023/03/21 11:21:03;;;;;;;6.45;2.95;;;20.00;99.90;;;;;;5032195;28;20104;-76
2023/03/21 11:23:31;;;;;;;5.65;2.80;;;19.60;99.90;;;;;;5032349;28;20029;-76
2023/03/21 11:26:02;;;;;;;7.53;2.90;;;19.80;99.90;;;;;;5014878;28;20536;-77
2023/03/21 11:28:38;;;;;;;5.60;2.45;;;19.70;99.90;;;;;;5032050;28;20029;-75
2023/03/21 11:31:07;;;;;;;6.23;2.67;;;19.00;99.90;;;;;;5032333;28;20143;-77
2023/03/21 11:33:52;;;;;;;5.10;2.85;;;18.70;99.90;;;;;;5031883;28;20071;-76
2023/03/21 11:36:37;;;;;;;6.35;3.83;;;18.30;99.90;;;;;;5032100;28;20032;-76
2023/03/21 11:39:21;;;;;;;9.25;4.20;;;17.60;99.90;;;;;;5032200;28;20108;-75
2023/03/21 11:41:51;;;;;;;9.60;4.53;;;17.90;99.90;;;;;;5032544;28;20021;-76
2023/03/21 11:44:42;;;;;;;8.48;4.60;;;17.90;99.90;;;;;;5032000;28;20025;-74
2023/03/21 11:47:10;;;;;;;6.82;3.90;;;18.00;99.90;;;;;;5032346;28;20380;-75
2023/03/21 11:49:36;;;;;;;5.60;3.72;;;18.00;99.90;;;;;;5031843;28;20030;-75
2023/03/21 11:52:06;;;;;;;;;;;18.60;99.90;;;;;;5032145;28;20037;-75
2023/03/21 11:54:55;;;;;;;9.50;4.63;;;18.20;99.90;;;;;;5014128;28;19909;-75
2023/03/21 11:57:39;;;;;;;12.93;4.30;;;18.30;99.90;;;;;;5032152;28;20047;-76
2023/03/21 12:00:41;;;;;;;7.35;4.05;;;18.40;99.90;;;;;;5032142;28;20036;-75
2023/03/21 12:03:28;;;;;;;7.78;3.83;;;19.00;99.90;;;;;;4931637;29;20031;-75
2023/03/21 12:06:01;;;;;;;10.85;3.80;;;19.10;99.90;;;;;;4932057;29;20067;-76
2023/03/21 12:08:40;;;;;;;7.28;4.03;;;19.40;99.90;;;;;;4932217;29;20088;-75
2023/03/21 12:11:29;;;;;;;7.85;4.03;;;18.70;99.90;;;;;;4932750;29;20124;-76
2023/03/21 12:14:04;;;;;;;9.52;4.20;;;18.40;99.90;;;;;;4932286;29;20043;-73
2023/03/21 12:16:57;;;;;;;7.47;4.07;;;18.20;99.90;;;;;;4932123;29;20032;-74
2023/03/21 12:19:32;;;;;;;10.02;4.22;;;18.90;99.90;;;;;;4931805;29;20063;-74
2023/03/21 12:22:06;;;;;;;8.48;4.40;;;19.10;99.90;;;;;;4932513;29;20162;-75
2023/03/21 12:24:44;;;;;;;13.85;4.45;;;19.50;99.90;;;;;;4916283;29;20095;-74
2023/03/21 12:27:43;;;;;;;29.25;10.48;;;19.80;99.90;;;;;;4932894;29;20560;-74
2023/03/21 12:30:32;;;;;;;19.00;8.80;;;20.00;99.90;;;;;;4917989;29;20044;-74
2023/03/21 12:33:12;;;;;;;11.20;5.53;;;19.80;99.90;;;;;;4914386;29;20131;-75
2023/03/21 12:36:02;;;;;;;10.70;5.28;;;19.00;99.90;;;;;;4916841;29;20024;-75
2023/03/21 12:38:53;;;;;;;59.92;8.70;;;18.60;99.90;;;;;;4931731;28;20055;-74
2023/03/21 12:41:26;;;;;;;9.20;5.13;;;18.90;99.90;;;;;;5015743;28;20025;-75
2023/03/21 12:44:10;;;;;;;17.55;5.43;;;19.30;99.90;;;;;;5015882;28;20030;-75
2023/03/21 12:47:01;;;;;;;14.68;6.32;;;19.50;99.90;;;;;;5015569;28;20029;-75
2023/03/21 12:49:32;;;;;;;9.50;4.78;;;19.50;99.90;;;;;;5015910;28;20085;-75
2023/03/21 12:52:08;;;;;;;8.30;4.20;;;19.20;99.90;;;;;;5015519;28;20084;-75
2023/03/21 12:54:55;;;;;;;9.73;4.57;;;19.50;99.90;;;;;;5015223;28;20026;-75
2023/03/21 12:57:46;;;;;;;6.85;4.63;;;19.30;99.90;;;;;;5015913;28;20026;-74
2023/03/21 13:00:24;;;;;;;8.75;4.13;;;19.50;99.90;;;;;;5016190;28;20026;-75
2023/03/21 13:03:01;;;;;;;7.25;4.20;;;19.50;99.90;;;;;;4997382;28;20018;-75
2023/03/21 13:05:32;;;;;;;13.77;4.45;;;19.40;99.90;;;;;;5015393;28;20088;-75
2023/03/21 13:08:04;;;;;;;9.55;3.78;;;19.20;99.90;;;;;;5021041;28;20025;-70